sensor_id;sensor_type;location;lat;lon;timestamp;P1;durP1;ratioP1;P2;durP2;ratioP2
75928;SDS011;64606;44.062;2.986;2023-08-12T00:22:20;13.23;;;3.78;;
75928;SDS011;64606;44.062;2.986;2023-08-12T07:18:04;13.02;;;2.45;;
75928;SDS011;64606;44.062;2.986;2023-08-12T08:18:12;8.55;;;2.42;;
75928;SDS011;64606;44.062;2.986;2023-08-12T08:21:22;17.65;;;3.05;;
75928;SDS011;64606;44.062;2.986;2023-08-12T08:23:51;14.23;;;3.65;;
75928;SDS011;64606;44.062;2.986;2023-08-12T08:46:17;11.43;;;2.53;;
75928;SDS011;64606;44.062;2.986;2023-08-12T08:49:42;7.43;;;2.70;;
75928;SDS011;64606;44.062;2.986;2023-08-12T08:52:53;10.50;;;2.78;;
75928;SDS011;64606;44.062;2.986;2023-08-12T09:15:22;6.55;;;2.80;;
75928;SDS011;64606;44.062;2.986;2023-08-12T09:17:49;30.88;;;5.35;;
75928;SDS011;64606;44.062;2.986;2023-08-12T09:20:15;53.38;;;6.32;;
75928;SDS011;64606;44.062;2.986;2023-08-12T09:22:41;43.17;;;5.57;;
75928;SDS011;64606;44.062;2.986;2023-08-12T09:25:08;34.20;;;6.03;;
75928;SDS011;64606;44.062;2.986;2023-08-12T09:27:35;31.40;;;7.22;;
75928;SDS011;64606;44.062;2.986;2023-08-12T09:30:02;24.15;;;7.13;;
75928;SDS011;64606;44.062;2.986;2023-08-12T09:32:30;20.23;;;6.22;;
75928;SDS011;64606;44.062;2.986;2023-08-12T09:34:56;35.60;;;6.55;;
75928;SDS011;64606;44.062;2.986;2023-08-12T09:37:23;14.63;;;5.30;;
75928;SDS011;64606;44.062;2.986;2023-08-12T09:39:50;22.40;;;5.40;;
75928;SDS011;64606;44.062;2.986;2023-08-12T09:54:06;9.25;;;4.40;;
75928;SDS011;64606;44.062;2.986;2023-08-12T09:56:38;8.55;;;4.00;;
75928;SDS011;64606;44.062;2.986;2023-08-12T09:59:05;238.57;;;17.70;;
75928;SDS011;64606;44.062;2.986;2023-08-12T10:01:32;56.25;;;7.80;;
75928;SDS011;64606;44.062;2.986;2023-08-12T10:03:59;70.03;;;7.35;;
75928;SDS011;64606;44.062;2.986;2023-08-12T10:06:26;42.47;;;6.40;;
75928;SDS011;64606;44.062;2.986;2023-08-12T10:08:52;49.60;;;6.68;;
75928;SDS011;64606;44.062;2.986;2023-08-12T10:11:19;38.75;;;5.40;;
75928;SDS011;64606;44.062;2.986;2023-08-12T10:13:45;19.13;;;4.75;;
75928;SDS011;64606;44.062;2.986;2023-08-12T10:16:13;15.23;;;4.93;;
75928;SDS011;64606;44.062;2.986;2023-08-12T10:18:39;26.15;;;6.40;;
75928;SDS011;64606;44.062;2.986;2023-08-12T10:21:08;24.92;;;6.85;;
75928;SDS011;64606;44.062;2.986;2023-08-12T10:23:35;15.80;;;5.22;;
75928;SDS011;64606;44.062;2.986;2023-08-12T10:26:02;13.50;;;4.85;;
75928;SDS011;64606;44.062;2.986;2023-08-12T10:28:30;15.45;;;4.15;;
75928;SDS011;64606;44.062;2.986;2023-08-12T10:31:02;12.32;;;4.72;;
75928;SDS011;64606;44.062;2.986;2023-08-12T10:33:28;12.88;;;4.88;;
75928;SDS011;64606;44.062;2.986;2023-08-12T10:35:55;10.75;;;4.40;;
75928;SDS011;64606;44.062;2.986;2023-08-12T10:38:21;8.07;;;3.58;;
75928;SDS011;64606;44.062;2.986;2023-08-12T10:40:51;7.85;;;4.18;;
75928;SDS011;64606;44.062;2.986;2023-08-12T10:43:18;8.50;;;3.58;;
75928;SDS011;64606;44.062;2.986;2023-08-12T10:45:48;11.88;;;4.38;;
75928;SDS011;64606;44.062;2.986;2023-08-12T10:48:16;20.40;;;4.32;;
75928;SDS011;64606;44.062;2.986;2023-08-12T10:50:44;15.50;;;4.30;;
75928;SDS011;64606;44.062;2.986;2023-08-12T10:55:48;8.07;;;3.55;;
75928;SDS011;64606;44.062;2.986;2023-08-12T10:58:23;9.73;;;3.80;;
75928;SDS011;64606;44.062;2.986;2023-08-12T11:00:57;8.13;;;3.38;;
75928;SDS011;64606;44.062;2.986;2023-08-12T11:03:23;9.95;;;3.55;;
75928;SDS011;64606;44.062;2.986;2023-08-12T11:05:49;8.10;;;3.50;;
75928;SDS011;64606;44.062;2.986;2023-08-12T11:08:20;8.15;;;3.50;;
75928;SDS011;64606;44.062;2.986;2023-08-12T11:10:49;8.80;;;3.95;;
75928;SDS011;64606;44.062;2.986;2023-08-12T11:13:15;15.63;;;3.50;;
75928;SDS011;64606;44.062;2.986;2023-08-12T11:15:45;19.73;;;3.30;;
75928;SDS011;64606;44.062;2.986;2023-08-12T11:18:12;9.50;;;3.60;;
75928;SDS011;64606;44.062;2.986;2023-08-12T11:20:39;7.18;;;3.40;;
75928;SDS011;64606;44.062;2.986;2023-08-12T11:23:06;6.40;;;3.42;;
75928;SDS011;64606;44.062;2.986;2023-08-12T11:25:33;11.35;;;3.40;;
75928;SDS011;64606;44.062;2.986;2023-08-12T11:27:59;8.38;;;3.63;;
75928;SDS011;64606;44.062;2.986;2023-08-12T11:30:26;5.43;;;3.00;;
75928;SDS011;64606;44.062;2.986;2023-08-12T11:32:52;7.85;;;3.45;;
75928;SDS011;64606;44.062;2.986;2023-08-12T11:35:19;7.78;;;3.17;;
75928;SDS011;64606;44.062;2.986;2023-08-12T11:37:46;13.77;;;4.05;;
75928;SDS011;64606;44.062;2.986;2023-08-12T11:40:13;9.10;;;3.53;;
75928;SDS011;64606;44.062;2.986;2023-08-12T11:42:41;8.50;;;3.90;;
75928;SDS011;64606;44.062;2.986;2023-08-12T11:45:07;8.10;;;3.40;;
75928;SDS011;64606;44.062;2.986;2023-08-12T11:47:34;8.77;;;3.60;;
75928;SDS011;64606;44.062;2.986;2023-08-12T11:50:04;5.88;;;3.05;;
75928;SDS011;64606;44.062;2.986;2023-08-12T11:52:31;6.88;;;3.40;;
75928;SDS011;64606;44.062;2.986;2023-08-12T11:54:57;7.40;;;3.30;;
75928;SDS011;64606;44.062;2.986;2023-08-12T11:57:23;8.20;;;3.42;;
75928;SDS011;64606;44.062;2.986;2023-08-12T11:59:50;9.88;;;3.30;;
75928;SDS011;64606;44.062;2.986;2023-08-12T12:02:16;6.88;;;3.58;;
75928;SDS011;64606;44.062;2.986;2023-08-12T12:04:42;10.18;;;3.58;;
75928;SDS011;64606;44.062;2.986;2023-08-12T12:07:19;4.75;;;3.10;;
75928;SDS011;64606;44.062;2.986;2023-08-12T12:09:45;6.47;;;2.97;;
75928;SDS011;64606;44.062;2.986;2023-08-12T12:12:11;6.35;;;3.15;;
75928;SDS011;64606;44.062;2.986;2023-08-12T12:14:37;5.55;;;3.38;;
75928;SDS011;64606;44.062;2.986;2023-08-12T12:17:07;8.70;;;3.95;;
75928;SDS011;64606;44.062;2.986;2023-08-12T12:19:39;6.37;;;3.60;;
75928;SDS011;64606;44.062;2.986;2023-08-12T12:22:05;8.45;;;3.40;;
75928;SDS011;64606;44.062;2.986;2023-08-12T12:24:31;7.03;;;3.55;;
75928;SDS011;64606;44.062;2.986;2023-08-12T12:27:09;6.97;;;3.60;;
75928;SDS011;64606;44.062;2.986;2023-08-12T12:29:35;7.63;;;3.70;;
75928;SDS011;64606;44.062;2.986;2023-08-12T12:32:01;7.50;;;3.60;;
75928;SDS011;64606;44.062;2.986;2023-08-12T12:34:28;5.07;;;3.20;;
75928;SDS011;64606;44.062;2.986;2023-08-12T12:36:54;7.47;;;3.33;;
75928;SDS011;64606;44.062;2.986;2023-08-12T12:39:20;6.55;;;3.30;;
75928;SDS011;64606;44.062;2.986;2023-08-12T12:41:48;6.22;;;3.20;;
75928;SDS011;64606;44.062;2.986;2023-08-12T12:44:14;6.95;;;2.97;;
75928;SDS011;64606;44.062;2.986;2023-08-12T12:46:40;7.20;;;3.92;;
75928;SDS011;64606;44.062;2.986;2023-08-12T12:49:06;8.95;;;3.83;;
75928;SDS011;64606;44.062;2.986;2023-08-12T12:51:32;7.07;;;3.28;;
75928;SDS011;64606;44.062;2.986;2023-08-12T12:53:58;7.00;;;3.30;;
75928;SDS011;64606;44.062;2.986;2023-08-12T12:56:24;7.13;;;3.40;;
75928;SDS011;64606;44.062;2.986;2023-08-12T12:58:50;8.02;;;3.25;;
75928;SDS011;64606;44.062;2.986;2023-08-12T13:01:16;6.85;;;3.10;;
75928;SDS011;64606;44.062;2.986;2023-08-12T13:03:43;8.40;;;3.60;;
75928;SDS011;64606;44.062;2.986;2023-08-12T13:06:09;5.22;;;3.50;;
75928;SDS011;64606;44.062;2.986;2023-08-12T13:08:35;7.30;;;2.97;;
75928;SDS011;64606;44.062;2.986;2023-08-12T13:11:01;6.80;;;3.58;;
75928;SDS011;64606;44.062;2.986;2023-08-12T13:13:27;5.53;;;3.10;;
75928;SDS011;64606;44.062;2.986;2023-08-12T13:15:53;4.68;;;3.05;;
75928;SDS011;64606;44.062;2.986;2023-08-12T13:18:19;7.55;;;3.40;;
75928;SDS011;64606;44.062;2.986;2023-08-12T13:20:45;6.88;;;3.50;;
75928;SDS011;64606;44.062;2.986;2023-08-12T13:23:11;5.85;;;3.30;;
75928;SDS011;64606;44.062;2.986;2023-08-12T13:25:38;5.68;;;3.63;;
75928;SDS011;64606;44.062;2.986;2023-08-12T13:28:04;7.50;;;3.63;;
75928;SDS011;64606;44.062;2.986;2023-08-12T13:30:30;5.72;;;2.95;;
75928;SDS011;64606;44.062;2.986;2023-08-12T13:32:56;5.40;;;3.05;;
75928;SDS011;64606;44.062;2.986;2023-08-12T13:35:22;6.95;;;3.15;;
75928;SDS011;64606;44.062;2.986;2023-08-12T13:37:49;5.60;;;3.15;;
75928;SDS011;64606;44.062;2.986;2023-08-12T13:40:18;6.60;;;3.10;;
75928;SDS011;64606;44.062;2.986;2023-08-12T13:42:45;5.82;;;3.25;;
75928;SDS011;64606;44.062;2.986;2023-08-12T13:45:11;6.78;;;3.25;;
75928;SDS011;64606;44.062;2.986;2023-08-12T13:47:38;4.38;;;2.92;;
75928;SDS011;64606;44.062;2.986;2023-08-12T13:50:04;4.75;;;2.83;;
75928;SDS011;64606;44.062;2.986;2023-08-12T13:52:31;6.05;;;3.22;;
75928;SDS011;64606;44.062;2.986;2023-08-12T13:54:57;7.80;;;3.30;;
75928;SDS011;64606;44.062;2.986;2023-08-12T13:57:23;4.55;;;3.15;;
75928;SDS011;64606;44.062;2.986;2023-08-12T13:59:49;4.82;;;2.83;;
75928;SDS011;64606;44.062;2.986;2023-08-12T14:02:15;5.35;;;3.15;;
75928;SDS011;64606;44.062;2.986;2023-08-12T14:04:41;5.13;;;2.88;;
75928;SDS011;64606;44.062;2.986;2023-08-12T14:07:08;6.45;;;3.08;;
75928;SDS011;64606;44.062;2.986;2023-08-12T14:09:34;4.68;;;3.05;;
75928;SDS011;64606;44.062;2.986;2023-08-12T14:12:00;7.80;;;2.97;;
75928;SDS011;64606;44.062;2.986;2023-08-12T14:14:26;5.53;;;2.72;;
75928;SDS011;64606;44.062;2.986;2023-08-12T14:16:53;6.70;;;2.70;;
75928;SDS011;64606;44.062;2.986;2023-08-12T14:19:19;5.55;;;2.95;;
75928;SDS011;64606;44.062;2.986;2023-08-12T14:21:45;3.58;;;2.53;;
75928;SDS011;64606;44.062;2.986;2023-08-12T14:24:11;4.05;;;2.85;;
75928;SDS011;64606;44.062;2.986;2023-08-12T14:26:40;5.53;;;3.22;;
75928;SDS011;64606;44.062;2.986;2023-08-12T14:29:06;7.45;;;2.75;;
75928;SDS011;64606;44.062;2.986;2023-08-12T14:31:33;7.07;;;3.13;;
75928;SDS011;64606;44.062;2.986;2023-08-12T14:33:59;5.30;;;3.03;;
75928;SDS011;64606;44.062;2.986;2023-08-12T14:36:26;5.07;;;2.90;;
75928;SDS011;64606;44.062;2.986;2023-08-12T14:38:52;3.97;;;2.65;;
75928;SDS011;64606;44.062;2.986;2023-08-12T14:41:19;8.90;;;3.00;;
75928;SDS011;64606;44.062;2.986;2023-08-12T14:43:45;5.55;;;2.78;;
75928;SDS011;64606;44.062;2.986;2023-08-12T14:46:11;9.82;;;2.92;;
75928;SDS011;64606;44.062;2.986;2023-08-12T14:48:37;5.25;;;2.85;;
75928;SDS011;64606;44.062;2.986;2023-08-12T14:51:03;6.50;;;2.70;;
75928;SDS011;64606;44.062;2.986;2023-08-12T14:53:29;7.22;;;2.60;;
75928;SDS011;64606;44.062;2.986;2023-08-12T14:55:55;4.57;;;2.60;;
75928;SDS011;64606;44.062;2.986;2023-08-12T14:58:21;6.40;;;3.05;;
75928;SDS011;64606;44.062;2.986;2023-08-12T15:00:48;7.35;;;2.60;;
75928;SDS011;64606;44.062;2.986;2023-08-12T15:03:14;5.35;;;2.67;;
75928;SDS011;64606;44.062;2.986;2023-08-12T15:05:41;7.47;;;3.35;;
75928;SDS011;64606;44.062;2.986;2023-08-12T15:08:07;7.60;;;2.70;;
75928;SDS011;64606;44.062;2.986;2023-08-12T15:10:33;5.18;;;2.80;;
75928;SDS011;64606;44.062;2.986;2023-08-12T15:13:00;4.38;;;2.40;;
75928;SDS011;64606;44.062;2.986;2023-08-12T15:15:26;5.50;;;2.90;;
75928;SDS011;64606;44.062;2.986;2023-08-12T15:17:52;9.13;;;2.50;;
75928;SDS011;64606;44.062;2.986;2023-08-12T15:20:18;4.35;;;2.38;;
75928;SDS011;64606;44.062;2.986;2023-08-12T15:22:44;5.00;;;2.80;;
75928;SDS011;64606;44.062;2.986;2023-08-12T15:25:10;5.10;;;2.60;;
75928;SDS011;64606;44.062;2.986;2023-08-12T15:27:36;6.15;;;2.80;;
75928;SDS011;64606;44.062;2.986;2023-08-12T15:30:03;4.88;;;2.90;;
75928;SDS011;64606;44.062;2.986;2023-08-12T15:32:29;5.72;;;2.40;;
75928;SDS011;64606;44.062;2.986;2023-08-12T15:34:56;4.22;;;2.63;;
75928;SDS011;64606;44.062;2.986;2023-08-12T15:37:23;6.57;;;2.75;;
75928;SDS011;64606;44.062;2.986;2023-08-12T15:39:49;5.32;;;2.50;;
75928;SDS011;64606;44.062;2.986;2023-08-12T15:42:15;5.15;;;2.85;;
75928;SDS011;64606;44.062;2.986;2023-08-12T15:44:41;4.57;;;2.50;;
75928;SDS011;64606;44.062;2.986;2023-08-12T15:47:07;6.25;;;2.65;;
75928;SDS011;64606;44.062;2.986;2023-08-12T15:49:33;5.78;;;2.88;;
75928;SDS011;64606;44.062;2.986;2023-08-12T15:51:59;4.43;;;2.35;;
75928;SDS011;64606;44.062;2.986;2023-08-12T15:54:26;2.95;;;2.20;;
75928;SDS011;64606;44.062;2.986;2023-08-12T15:56:53;6.47;;;2.63;;
75928;SDS011;64606;44.062;2.986;2023-08-12T15:59:19;3.72;;;2.33;;
75928;SDS011;64606;44.062;2.986;2023-08-12T16:01:45;4.97;;;2.47;;
75928;SDS011;64606;44.062;2.986;2023-08-12T16:04:12;5.45;;;2.28;;
75928;SDS011;64606;44.062;2.986;2023-08-12T16:06:38;4.00;;;2.45;;
75928;SDS011;64606;44.062;2.986;2023-08-12T16:09:04;9.30;;;2.58;;
75928;SDS011;64606;44.062;2.986;2023-08-12T16:11:31;6.45;;;2.40;;
75928;SDS011;64606;44.062;2.986;2023-08-12T16:13:57;4.50;;;2.28;;
75928;SDS011;64606;44.062;2.986;2023-08-12T16:16:23;5.78;;;2.40;;
75928;SDS011;64606;44.062;2.986;2023-08-12T16:18:49;5.30;;;2.53;;
75928;SDS011;64606;44.062;2.986;2023-08-12T16:21:15;4.00;;;2.60;;
75928;SDS011;64606;44.062;2.986;2023-08-12T16:23:41;5.00;;;2.58;;
75928;SDS011;64606;44.062;2.986;2023-08-12T16:26:07;4.85;;;2.40;;
75928;SDS011;64606;44.062;2.986;2023-08-12T16:28:33;4.40;;;2.53;;
75928;SDS011;64606;44.062;2.986;2023-08-12T16:31:00;5.60;;;2.40;;
75928;SDS011;64606;44.062;2.986;2023-08-12T16:33:27;5.80;;;2.50;;
75928;SDS011;64606;44.062;2.986;2023-08-12T16:35:53;3.85;;;2.53;;
75928;SDS011;64606;44.062;2.986;2023-08-12T16:38:19;3.47;;;2.60;;
75928;SDS011;64606;44.062;2.986;2023-08-12T16:40:47;4.28;;;2.47;;
75928;SDS011;64606;44.062;2.986;2023-08-12T16:43:14;4.32;;;2.30;;
75928;SDS011;64606;44.062;2.986;2023-08-12T16:45:40;4.05;;;2.20;;
75928;SDS011;64606;44.062;2.986;2023-08-12T16:48:06;5.55;;;2.70;;
75928;SDS011;64606;44.062;2.986;2023-08-12T16:50:32;4.53;;;2.40;;
75928;SDS011;64606;44.062;2.986;2023-08-12T16:53:00;4.20;;;2.30;;
75928;SDS011;64606;44.062;2.986;2023-08-12T16:55:26;3.40;;;2.40;;
75928;SDS011;64606;44.062;2.986;2023-08-12T16:57:52;3.42;;;2.30;;
75928;SDS011;64606;44.062;2.986;2023-08-12T17:00:18;3.83;;;2.47;;
75928;SDS011;64606;44.062;2.986;2023-08-12T17:02:44;4.07;;;2.50;;
75928;SDS011;64606;44.062;2.986;2023-08-12T17:05:10;3.58;;;2.30;;
75928;SDS011;64606;44.062;2.986;2023-08-12T17:07:36;3.35;;;2.28;;
75928;SDS011;64606;44.062;2.986;2023-08-12T17:10:03;4.28;;;2.38;;
75928;SDS011;64606;44.062;2.986;2023-08-12T17:12:29;4.65;;;2.45;;
75928;SDS011;64606;44.062;2.986;2023-08-12T17:14:55;6.30;;;2.75;;
75928;SDS011;64606;44.062;2.986;2023-08-12T17:17:21;11.75;;;2.50;;
75928;SDS011;64606;44.062;2.986;2023-08-12T17:22:51;16.67;;;3.60;;
75928;SDS011;64606;44.062;2.986;2023-08-12T17:25:17;8.90;;;2.53;;
75928;SDS011;64606;44.062;2.986;2023-08-12T17:27:43;18.55;;;3.20;;
75928;SDS011;64606;44.062;2.986;2023-08-12T17:30:09;12.95;;;3.17;;
75928;SDS011;64606;44.062;2.986;2023-08-12T17:32:35;14.05;;;3.28;;
75928;SDS011;64606;44.062;2.986;2023-08-12T17:35:01;15.43;;;3.50;;
75928;SDS011;64606;44.062;2.986;2023-08-12T17:37:28;16.48;;;3.33;;
75928;SDS011;64606;44.062;2.986;2023-08-12T17:40:00;14.80;;;3.88;;
75928;SDS011;64606;44.062;2.986;2023-08-12T17:42:27;15.20;;;3.58;;
75928;SDS011;64606;44.062;2.986;2023-08-12T17:44:53;27.95;;;3.83;;
75928;SDS011;64606;44.062;2.986;2023-08-12T17:47:19;21.23;;;3.55;;
75928;SDS011;64606;44.062;2.986;2023-08-12T17:49:45;11.52;;;2.95;;
75928;SDS011;64606;44.062;2.986;2023-08-12T17:52:11;11.80;;;3.00;;
75928;SDS011;64606;44.062;2.986;2023-08-12T17:54:38;14.25;;;3.08;;
75928;SDS011;64606;44.062;2.986;2023-08-12T17:57:04;9.27;;;3.22;;
75928;SDS011;64606;44.062;2.986;2023-08-12T17:59:31;11.13;;;3.13;;
75928;SDS011;64606;44.062;2.986;2023-08-12T18:01:57;12.00;;;3.55;;
75928;SDS011;64606;44.062;2.986;2023-08-12T18:04:23;13.13;;;3.35;;
75928;SDS011;64606;44.062;2.986;2023-08-12T18:06:53;8.93;;;2.95;;
75928;SDS011;64606;44.062;2.986;2023-08-12T18:09:30;8.70;;;3.00;;
75928;SDS011;64606;44.062;2.986;2023-08-12T18:11:56;10.43;;;2.88;;
75928;SDS011;64606;44.062;2.986;2023-08-12T18:14:23;5.35;;;2.83;;
75928;SDS011;64606;44.062;2.986;2023-08-12T18:16:49;7.43;;;2.67;;
75928;SDS011;64606;44.062;2.986;2023-08-12T18:19:16;7.85;;;2.88;;
75928;SDS011;64606;44.062;2.986;2023-08-12T18:21:42;10.73;;;3.20;;
75928;SDS011;64606;44.062;2.986;2023-08-12T18:24:09;7.75;;;2.78;;
75928;SDS011;64606;44.062;2.986;2023-08-12T18:26:35;7.82;;;2.90;;
75928;SDS011;64606;44.062;2.986;2023-08-12T18:29:01;8.40;;;3.10;;
75928;SDS011;64606;44.062;2.986;2023-08-12T18:31:28;7.80;;;2.78;;
75928;SDS011;64606;44.062;2.986;2023-08-12T18:33:54;8.40;;;2.90;;
75928;SDS011;64606;44.062;2.986;2023-08-12T18:36:20;11.65;;;2.90;;
75928;SDS011;64606;44.062;2.986;2023-08-12T18:38:46;8.82;;;2.95;;
75928;SDS011;64606;44.062;2.986;2023-08-12T18:41:13;6.25;;;2.85;;
75928;SDS011;64606;44.062;2.986;2023-08-12T18:43:39;7.15;;;3.28;;
75928;SDS011;64606;44.062;2.986;2023-08-12T18:46:05;8.02;;;2.80;;
75928;SDS011;64606;44.062;2.986;2023-08-12T18:48:31;9.77;;;3.10;;
75928;SDS011;64606;44.062;2.986;2023-08-12T18:50:57;8.13;;;3.22;;
75928;SDS011;64606;44.062;2.986;2023-08-12T18:53:23;5.05;;;2.95;;
75928;SDS011;64606;44.062;2.986;2023-08-12T18:55:52;7.70;;;2.65;;
75928;SDS011;64606;44.062;2.986;2023-08-12T18:58:18;4.60;;;2.50;;
75928;SDS011;64606;44.062;2.986;2023-08-12T19:00:44;6.85;;;2.90;;
75928;SDS011;64606;44.062;2.986;2023-08-12T19:03:10;5.63;;;2.88;;
75928;SDS011;64606;44.062;2.986;2023-08-12T19:05:36;7.68;;;3.13;;
75928;SDS011;64606;44.062;2.986;2023-08-12T19:08:03;7.13;;;2.75;;
75928;SDS011;64606;44.062;2.986;2023-08-12T19:10:29;5.15;;;2.55;;
75928;SDS011;64606;44.062;2.986;2023-08-12T19:12:56;4.60;;;2.78;;
75928;SDS011;64606;44.062;2.986;2023-08-12T19:15:22;7.03;;;2.92;;
75928;SDS011;64606;44.062;2.986;2023-08-12T19:17:48;6.00;;;2.97;;
75928;SDS011;64606;44.062;2.986;2023-08-12T19:20:15;3.90;;;2.92;;
75928;SDS011;64606;44.062;2.986;2023-08-12T19:22:46;4.68;;;2.55;;
75928;SDS011;64606;44.062;2.986;2023-08-12T19:25:12;8.57;;;3.03;;
75928;SDS011;64606;44.062;2.986;2023-08-12T19:27:39;6.68;;;3.13;;
75928;SDS011;64606;44.062;2.986;2023-08-12T19:30:05;5.35;;;2.80;;
75928;SDS011;64606;44.062;2.986;2023-08-12T19:32:53;4.85;;;2.85;;
75928;SDS011;64606;44.062;2.986;2023-08-12T19:35:19;5.35;;;2.97;;
75928;SDS011;64606;44.062;2.986;2023-08-12T19:37:46;6.68;;;3.17;;
75928;SDS011;64606;44.062;2.986;2023-08-12T19:40:13;7.18;;;3.00;;
75928;SDS011;64606;44.062;2.986;2023-08-12T19:42:40;6.07;;;2.90;;
75928;SDS011;64606;44.062;2.986;2023-08-12T19:45:06;3.75;;;2.47;;
75928;SDS011;64606;44.062;2.986;2023-08-12T19:47:38;5.78;;;3.00;;
75928;SDS011;64606;44.062;2.986;2023-08-12T19:50:05;5.22;;;3.05;;
75928;SDS011;64606;44.062;2.986;2023-08-12T19:52:31;4.25;;;2.88;;
75928;SDS011;64606;44.062;2.986;2023-08-12T19:54:58;7.18;;;2.92;;
75928;SDS011;64606;44.062;2.986;2023-08-12T19:57:24;4.95;;;2.97;;
75928;SDS011;64606;44.062;2.986;2023-08-12T19:59:52;4.80;;;3.00;;
75928;SDS011;64606;44.062;2.986;2023-08-12T20:02:18;6.15;;;2.88;;
75928;SDS011;64606;44.062;2.986;2023-08-12T20:04:45;6.35;;;2.78;;
75928;SDS011;64606;44.062;2.986;2023-08-12T20:07:12;7.82;;;3.17;;
75928;SDS011;64606;44.062;2.986;2023-08-12T20:09:38;5.70;;;3.13;;
75928;SDS011;64606;44.062;2.986;2023-08-12T20:12:05;6.28;;;2.85;;
75928;SDS011;64606;44.062;2.986;2023-08-12T20:14:31;4.50;;;2.70;;
75928;SDS011;64606;44.062;2.986;2023-08-12T20:16:58;6.85;;;3.00;;
75928;SDS011;64606;44.062;2.986;2023-08-12T20:19:24;4.97;;;3.00;;
75928;SDS011;64606;44.062;2.986;2023-08-12T20:21:51;5.93;;;3.20;;
75928;SDS011;64606;44.062;2.986;2023-08-12T20:24:18;8.10;;;3.28;;
75928;SDS011;64606;44.062;2.986;2023-08-12T20:26:44;4.55;;;2.90;;
75928;SDS011;64606;44.062;2.986;2023-08-12T20:29:11;6.50;;;3.20;;
75928;SDS011;64606;44.062;2.986;2023-08-12T20:31:38;5.05;;;2.88;;
75928;SDS011;64606;44.062;2.986;2023-08-12T20:34:05;5.85;;;2.75;;
75928;SDS011;64606;44.062;2.986;2023-08-12T20:36:31;7.05;;;3.00;;
75928;SDS011;64606;44.062;2.986;2023-08-12T20:38:58;6.15;;;2.85;;
75928;SDS011;64606;44.062;2.986;2023-08-12T20:41:26;6.82;;;2.97;;
75928;SDS011;64606;44.062;2.986;2023-08-12T20:43:52;5.57;;;2.90;;
75928;SDS011;64606;44.062;2.986;2023-08-12T20:46:19;6.75;;;2.78;;
75928;SDS011;64606;44.062;2.986;2023-08-12T20:48:45;4.95;;;3.08;;
75928;SDS011;64606;44.062;2.986;2023-08-12T20:51:12;3.78;;;2.60;;
75928;SDS011;64606;44.062;2.986;2023-08-12T20:53:39;3.83;;;2.58;;
75928;SDS011;64606;44.062;2.986;2023-08-12T20:56:05;8.23;;;3.10;;
75928;SDS011;64606;44.062;2.986;2023-08-12T20:58:32;4.88;;;2.83;;
75928;SDS011;64606;44.062;2.986;2023-08-12T21:00:58;7.30;;;2.70;;
75928;SDS011;64606;44.062;2.986;2023-08-12T21:03:25;6.10;;;2.58;;
75928;SDS011;64606;44.062;2.986;2023-08-12T21:05:51;13.85;;;3.05;;
75928;SDS011;64606;44.062;2.986;2023-08-12T21:08:18;4.90;;;2.97;;
75928;SDS011;64606;44.062;2.986;2023-08-12T21:10:51;6.68;;;3.10;;
75928;SDS011;64606;44.062;2.986;2023-08-12T21:13:18;5.50;;;2.80;;
75928;SDS011;64606;44.062;2.986;2023-08-12T21:15:45;5.53;;;2.50;;
75928;SDS011;64606;44.062;2.986;2023-08-12T21:18:11;5.53;;;2.95;;
75928;SDS011;64606;44.062;2.986;2023-08-12T21:20:38;4.57;;;2.65;;
75928;SDS011;64606;44.062;2.986;2023-08-12T21:23:05;4.47;;;2.83;;
75928;SDS011;64606;44.062;2.986;2023-08-12T21:25:31;5.70;;;2.70;;
75928;SDS011;64606;44.062;2.986;2023-08-12T21:27:58;5.07;;;2.88;;
75928;SDS011;64606;44.062;2.986;2023-08-12T21:30:24;4.47;;;2.50;;
75928;SDS011;64606;44.062;2.986;2023-08-12T21:32:53;5.00;;;2.70;;
75928;SDS011;64606;44.062;2.986;2023-08-12T21:35:19;5.55;;;2.97;;
75928;SDS011;64606;44.062;2.986;2023-08-12T21:37:46;4.82;;;2.45;;
75928;SDS011;64606;44.062;2.986;2023-08-12T21:40:12;7.82;;;2.97;;
75928;SDS011;64606;44.062;2.986;2023-08-12T21:42:40;3.95;;;3.08;;
75928;SDS011;64606;44.062;2.986;2023-08-12T21:45:06;4.90;;;2.63;;
75928;SDS011;64606;44.062;2.986;2023-08-12T21:47:33;4.63;;;2.58;;
75928;SDS011;64606;44.062;2.986;2023-08-12T21:49:59;4.03;;;2.60;;
75928;SDS011;64606;44.062;2.986;2023-08-12T21:52:26;3.92;;;2.45;;
75928;SDS011;64606;44.062;2.986;2023-08-12T21:54:52;4.55;;;2.50;;
75928;SDS011;64606;44.062;2.986;2023-08-12T21:57:18;3.95;;;2.60;;
75928;SDS011;64606;44.062;2.986;2023-08-12T21:59:45;4.00;;;2.42;;
75928;SDS011;64606;44.062;2.986;2023-08-12T22:02:11;6.10;;;2.85;;
75928;SDS011;64606;44.062;2.986;2023-08-12T22:04:38;5.90;;;2.70;;
75928;SDS011;64606;44.062;2.986;2023-08-12T22:07:04;3.90;;;2.63;;
75928;SDS011;64606;44.062;2.986;2023-08-12T22:09:31;5.00;;;2.75;;
75928;SDS011;64606;44.062;2.986;2023-08-12T22:11:59;5.85;;;2.75;;
75928;SDS011;64606;44.062;2.986;2023-08-12T22:14:25;5.32;;;2.33;;
75928;SDS011;64606;44.062;2.986;2023-08-12T22:16:52;5.10;;;2.55;;
75928;SDS011;64606;44.062;2.986;2023-08-12T22:19:18;3.63;;;2.65;;
75928;SDS011;64606;44.062;2.986;2023-08-12T22:21:45;3.53;;;2.30;;
75928;SDS011;64606;44.062;2.986;2023-08-12T22:24:11;3.60;;;2.42;;
75928;SDS011;64606;44.062;2.986;2023-08-12T22:26:38;3.05;;;2.42;;
75928;SDS011;64606;44.062;2.986;2023-08-12T22:29:04;3.22;;;2.60;;
75928;SDS011;64606;44.062;2.986;2023-08-12T22:31:31;6.32;;;2.80;;
75928;SDS011;64606;44.062;2.986;2023-08-12T22:33:57;4.43;;;2.47;;
75928;SDS011;64606;44.062;2.986;2023-08-12T22:36:25;4.97;;;2.90;;
75928;SDS011;64606;44.062;2.986;2023-08-12T22:38:51;3.63;;;2.22;;
75928;SDS011;64606;44.062;2.986;2023-08-12T22:41:18;8.00;;;2.92;;
75928;SDS011;64606;44.062;2.986;2023-08-12T22:43:44;5.05;;;2.88;;
75928;SDS011;64606;44.062;2.986;2023-08-12T22:46:11;3.28;;;2.42;;
75928;SDS011;64606;44.062;2.986;2023-08-12T22:48:37;4.03;;;2.60;;
75928;SDS011;64606;44.062;2.986;2023-08-12T22:51:04;3.25;;;2.28;;
75928;SDS011;64606;44.062;2.986;2023-08-12T22:53:31;4.78;;;2.83;;
75928;SDS011;64606;44.062;2.986;2023-08-12T22:55:57;2.95;;;2.33;;
75928;SDS011;64606;44.062;2.986;2023-08-12T22:58:23;4.60;;;2.45;;
75928;SDS011;64606;44.062;2.986;2023-08-12T23:00:50;2.90;;;2.28;;
75928;SDS011;64606;44.062;2.986;2023-08-12T23:03:16;3.97;;;2.58;;
75928;SDS011;64606;44.062;2.986;2023-08-12T23:05:43;6.97;;;2.13;;
75928;SDS011;64606;44.062;2.986;2023-08-12T23:08:11;3.60;;;2.22;;
75928;SDS011;64606;44.062;2.986;2023-08-12T23:10:37;3.78;;;2.35;;
75928;SDS011;64606;44.062;2.986;2023-08-12T23:13:04;4.45;;;2.60;;
75928;SDS011;64606;44.062;2.986;2023-08-12T23:15:30;3.53;;;2.50;;
75928;SDS011;64606;44.062;2.986;2023-08-12T23:18:34;3.70;;;2.30;;
75928;SDS011;64606;44.062;2.986;2023-08-12T23:21:06;3.55;;;2.53;;
75928;SDS011;64606;44.062;2.986;2023-08-12T23:23:56;12.07;;;3.25;;
75928;SDS011;64606;44.062;2.986;2023-08-12T23:26:22;61.92;;;5.40;;
75928;SDS011;64606;44.062;2.986;2023-08-12T23:28:49;25.50;;;4.60;;
75928;SDS011;64606;44.062;2.986;2023-08-12T23:31:16;37.88;;;4.03;;
75928;SDS011;64606;44.062;2.986;2023-08-12T23:34:22;24.13;;;3.55;;
75928;SDS011;64606;44.062;2.986;2023-08-12T23:36:48;24.42;;;3.80;;
75928;SDS011;64606;44.062;2.986;2023-08-12T23:39:15;21.63;;;3.80;;
75928;SDS011;64606;44.062;2.986;2023-08-12T23:41:41;22.30;;;3.53;;
75928;SDS011;64606;44.062;2.986;2023-08-12T23:44:07;20.63;;;3.55;;
75928;SDS011;64606;44.062;2.986;2023-08-12T23:46:34;10.43;;;2.85;;
75928;SDS011;64606;44.062;2.986;2023-08-12T23:49:00;22.10;;;3.10;;
75928;SDS011;64606;44.062;2.986;2023-08-12T23:51:26;17.88;;;3.20;;
75928;SDS011;64606;44.062;2.986;2023-08-12T23:53:53;16.75;;;2.85;;
75928;SDS011;64606;44.062;2.986;2023-08-12T23:56:19;11.45;;;2.90;;